sensor_id;sensor_type;location;lat;lon;timestamp;pressure;altitude;pressure_sealevel;temperature;humidity
62800;BME280;48842;51.046;13.796;2023-12-22T00:00:14;97848.84;;;8.42;52.92
62800;BME280;48842;51.046;13.796;2023-12-22T00:02:39;97848.88;;;8.40;53.31
62800;BME280;48842;51.046;13.796;2023-12-22T00:05:06;97843.69;;;8.40;52.64
62800;BME280;48842;51.046;13.796;2023-12-22T00:07:32;97839.31;;;8.41;52.70
62800;BME280;48842;51.046;13.796;2023-12-22T00:09:57;97842.84;;;8.38;52.44
62800;BME280;48842;51.046;13.796;2023-12-22T00:12:22;97830.53;;;8.43;52.32
62800;BME280;48842;51.046;13.796;2023-12-22T00:14:47;97824.44;;;8.46;52.75
62800;BME280;48842;51.046;13.796;2023-12-22T00:17:13;97845.34;;;8.44;52.21
62800;BME280;48842;51.046;13.796;2023-12-22T00:19:38;97833.97;;;8.45;52.00
62800;BME280;48842;51.046;13.796;2023-12-22T00:22:03;97848.75;;;8.46;52.49
62800;BME280;48842;51.046;13.796;2023-12-22T00:24:29;97842.72;;;8.44;52.47
62800;BME280;48842;51.046;13.796;2023-12-22T00:26:54;97840.06;;;8.46;52.17
62800;BME280;48842;51.046;13.796;2023-12-22T00:29:20;97839.09;;;8.48;52.52
62800;BME280;48842;51.046;13.796;2023-12-22T00:31:45;97833.97;;;8.45;52.24
62800;BME280;48842;51.046;13.796;2023-12-22T00:34:10;97841.81;;;8.45;51.79
62800;BME280;48842;51.046;13.796;2023-12-22T00:36:35;97854.03;;;8.43;51.55
62800;BME280;48842;51.046;13.796;2023-12-22T00:39:01;97864.44;;;8.45;51.61
62800;BME280;48842;51.046;13.796;2023-12-22T00:41:26;97845.41;;;8.39;51.20
62800;BME280;48842;51.046;13.796;2023-12-22T00:43:51;97845.41;;;8.39;51.68
62800;BME280;48842;51.046;13.796;2023-12-22T00:46:16;97844.56;;;8.39;51.60
62800;BME280;48842;51.046;13.796;2023-12-22T00:48:42;97864.22;;;8.19;51.54
62800;BME280;48842;51.046;13.796;2023-12-22T00:51:07;97846.69;;;8.25;51.93
62800;BME280;48842;51.046;13.796;2023-12-22T00:53:32;97844.09;;;8.25;52.10
62800;BME280;48842;51.046;13.796;2023-12-22T00:55:59;97848.41;;;8.26;52.23
62800;BME280;48842;51.046;13.796;2023-12-22T00:58:25;97858.88;;;8.24;51.67
62800;BME280;48842;51.046;13.796;2023-12-22T01:00:50;97857.28;;;8.18;51.63
62800;BME280;48842;51.046;13.796;2023-12-22T01:03:16;97859.91;;;8.18;51.53
62800;BME280;48842;51.046;13.796;2023-12-22T01:05:41;97865.91;;;8.20;51.23
62800;BME280;48842;51.046;13.796;2023-12-22T01:08:07;97866.53;;;8.30;51.18
62800;BME280;48842;51.046;13.796;2023-12-22T01:10:32;97863.75;;;8.36;51.41
62800;BME280;48842;51.046;13.796;2023-12-22T01:12:58;97865.56;;;8.34;50.88
62800;BME280;48842;51.046;13.796;2023-12-22T01:15:23;97894.16;;;8.37;50.90
62800;BME280;48842;51.046;13.796;2023-12-22T01:17:48;97894.13;;;8.39;51.01
62800;BME280;48842;51.046;13.796;2023-12-22T01:20:13;97912.41;;;8.37;51.29
62800;BME280;48842;51.046;13.796;2023-12-22T01:22:39;97909.84;;;8.36;50.96
62800;BME280;48842;51.046;13.796;2023-12-22T01:25:05;97889.78;;;8.38;50.99
62800;BME280;48842;51.046;13.796;2023-12-22T01:27:31;97909.09;;;8.32;50.73
62800;BME280;48842;51.046;13.796;2023-12-22T01:29:56;97897.75;;;8.33;51.14
62800;BME280;48842;51.046;13.796;2023-12-22T01:32:21;97892.34;;;8.41;51.01
62800;BME280;48842;51.046;13.796;2023-12-22T01:34:47;97894.13;;;8.39;50.64
62800;BME280;48842;51.046;13.796;2023-12-22T01:37:12;97886.38;;;8.36;50.58
62800;BME280;48842;51.046;13.796;2023-12-22T01:39:37;97905.38;;;8.41;50.72
62800;BME280;48842;51.046;13.796;2023-12-22T01:42:03;97891.78;;;8.30;50.63
62800;BME280;48842;51.046;13.796;2023-12-22T01:44:28;97932.56;;;8.32;50.76
62800;BME280;48842;51.046;13.796;2023-12-22T01:46:54;97913.44;;;8.32;50.70
62800;BME280;48842;51.046;13.796;2023-12-22T01:49:21;97917.69;;;8.36;50.58
62800;BME280;48842;51.046;13.796;2023-12-22T01:51:47;97931.78;;;8.29;50.81
62800;BME280;48842;51.046;13.796;2023-12-22T01:54:13;97916.84;;;8.35;50.86
62800;BME280;48842;51.046;13.796;2023-12-22T01:56:40;97918.59;;;8.33;50.91
62800;BME280;48842;51.046;13.796;2023-12-22T01:59:06;97917.84;;;8.30;51.07
62800;BME280;48842;51.046;13.796;2023-12-22T02:01:32;97928.28;;;8.30;51.18
62800;BME280;48842;51.046;13.796;2023-12-22T02:03:58;97937.88;;;8.28;51.53
62800;BME280;48842;51.046;13.796;2023-12-22T02:06:24;97932.69;;;8.26;51.67
62800;BME280;48842;51.046;13.796;2023-12-22T02:08:49;97939.88;;;8.18;52.05
62800;BME280;48842;51.046;13.796;2023-12-22T02:11:15;97939.75;;;8.23;52.08
62800;BME280;48842;51.046;13.796;2023-12-22T02:13:44;97936.47;;;8.14;52.57
62800;BME280;48842;51.046;13.796;2023-12-22T02:18:59;97957.63;;;8.03;53.17
62800;BME280;48842;51.046;13.796;2023-12-22T02:21:29;97964.94;;;7.88;53.60
62800;BME280;48842;51.046;13.796;2023-12-22T02:23:54;97979.63;;;7.92;53.40
62800;BME280;48842;51.046;13.796;2023-12-22T02:26:33;97956.22;;;7.90;53.76
62800;BME280;48842;51.046;13.796;2023-12-22T02:29:02;97955.38;;;7.88;53.79
62800;BME280;48842;51.046;13.796;2023-12-22T02:31:37;97964.94;;;7.88;53.71
62800;BME280;48842;51.046;13.796;2023-12-22T02:34:07;97951.09;;;7.85;53.84
62800;BME280;48842;51.046;13.796;2023-12-22T02:36:35;97955.41;;;7.86;53.34
62800;BME280;48842;51.046;13.796;2023-12-22T02:39:01;97945.91;;;7.84;53.49
62800;BME280;48842;51.046;13.796;2023-12-22T02:41:27;97939.84;;;7.83;53.50
62800;BME280;48842;51.046;13.796;2023-12-22T02:43:52;97947.72;;;7.82;53.55
62800;BME280;48842;51.046;13.796;2023-12-22T02:46:18;97951.25;;;7.79;53.86
62800;BME280;48842;51.046;13.796;2023-12-22T02:48:43;97963.41;;;7.79;53.95
62800;BME280;48842;51.046;13.796;2023-12-22T02:51:08;97964.34;;;7.76;53.75
62800;BME280;48842;51.046;13.796;2023-12-22T02:53:33;97961.69;;;7.78;53.52
62800;BME280;48842;51.046;13.796;2023-12-22T02:55:58;97960.00;;;7.75;53.88
62800;BME280;48842;51.046;13.796;2023-12-22T02:58:24;97952.16;;;7.77;53.83
62800;BME280;48842;51.046;13.796;2023-12-22T03:00:49;97938.28;;;7.76;53.67
62800;BME280;48842;51.046;13.796;2023-12-22T03:03:14;97945.16;;;7.80;53.55
62800;BME280;48842;51.046;13.796;2023-12-22T03:05:39;97951.19;;;7.81;52.91
62800;BME280;48842;51.046;13.796;2023-12-22T03:08:05;97933.75;;;7.84;53.14
62800;BME280;48842;51.046;13.796;2023-12-22T03:10:30;97926.75;;;7.86;52.95
62800;BME280;48842;51.046;13.796;2023-12-22T03:12:55;97924.19;;;7.85;52.65
62800;BME280;48842;51.046;13.796;2023-12-22T03:15:21;97916.31;;;7.86;52.88
62800;BME280;48842;51.046;13.796;2023-12-22T03:17:46;97919.78;;;7.89;53.03
62800;BME280;48842;51.046;13.796;2023-12-22T03:20:11;97916.28;;;7.88;53.47
62800;BME280;48842;51.046;13.796;2023-12-22T03:22:38;97910.22;;;7.88;53.29
62800;BME280;48842;51.046;13.796;2023-12-22T03:25:03;97925.88;;;7.88;52.67
62800;BME280;48842;51.046;13.796;2023-12-22T03:27:28;97920.66;;;7.88;52.78
62800;BME280;48842;51.046;13.796;2023-12-22T03:29:53;97922.38;;;7.89;52.82
62800;BME280;48842;51.046;13.796;2023-12-22T03:32:19;97920.56;;;7.91;52.55
62800;BME280;48842;51.046;13.796;2023-12-22T03:34:44;97904.06;;;7.92;52.65
62800;BME280;48842;51.046;13.796;2023-12-22T03:37:10;97901.44;;;7.92;52.32
62800;BME280;48842;51.046;13.796;2023-12-22T03:39:35;97908.34;;;7.93;51.99
62800;BME280;48842;51.046;13.796;2023-12-22T03:42:00;97905.75;;;7.93;52.12
62800;BME280;48842;51.046;13.796;2023-12-22T03:44:25;97897.03;;;7.94;51.90
62800;BME280;48842;51.046;13.796;2023-12-22T03:46:51;97902.38;;;7.89;51.52
62800;BME280;48842;51.046;13.796;2023-12-22T03:49:16;97911.78;;;7.95;51.20
62800;BME280;48842;51.046;13.796;2023-12-22T03:51:42;97921.53;;;7.86;50.88
62800;BME280;48842;51.046;13.796;2023-12-22T03:54:07;97924.06;;;7.90;50.47
62800;BME280;48842;51.046;13.796;2023-12-22T03:56:33;97918.69;;;7.97;50.91
62800;BME280;48842;51.046;13.796;2023-12-22T03:58:58;97923.09;;;7.94;50.66
62800;BME280;48842;51.046;13.796;2023-12-22T04:01:23;97930.75;;;8.00;50.41
62800;BME280;48842;51.046;13.796;2023-12-22T04:03:48;97916.88;;;7.99;50.51
62800;BME280;48842;51.046;13.796;2023-12-22T04:06:13;97921.22;;;8.00;49.94
62800;BME280;48842;51.046;13.796;2023-12-22T04:08:39;97915.03;;;8.03;49.63
62800;BME280;48842;51.046;13.796;2023-12-22T04:11:04;97925.25;;;8.12;50.07
62800;BME280;48842;51.046;13.796;2023-12-22T04:13:29;97919.94;;;8.15;49.81
62800;BME280;48842;51.046;13.796;2023-12-22T04:15:55;97909.44;;;8.18;49.50
62800;BME280;48842;51.046;13.796;2023-12-22T04:18:20;97945.19;;;8.15;49.44
62800;BME280;48842;51.046;13.796;2023-12-22T04:20:45;97924.28;;;8.16;49.35
62800;BME280;48842;51.046;13.796;2023-12-22T04:23:10;97914.56;;;8.21;49.14
62800;BME280;48842;51.046;13.796;2023-12-22T04:25:36;97910.19;;;8.24;49.09
62800;BME280;48842;51.046;13.796;2023-12-22T04:28:01;97902.38;;;8.24;48.85
62800;BME280;48842;51.046;13.796;2023-12-22T04:30:26;97924.97;;;8.23;49.31
62800;BME280;48842;51.046;13.796;2023-12-22T04:32:52;97932.94;;;8.17;49.04
62800;BME280;48842;51.046;13.796;2023-12-22T04:35:18;97926.72;;;8.23;49.25
62800;BME280;48842;51.046;13.796;2023-12-22T04:37:43;97913.69;;;8.23;49.26
62800;BME280;48842;51.046;13.796;2023-12-22T04:40:09;97940.59;;;8.23;48.90
62800;BME280;48842;51.046;13.796;2023-12-22T04:42:34;97931.94;;;8.23;49.49
62800;BME280;48842;51.046;13.796;2023-12-22T04:44:59;97933.13;;;8.11;49.34
62800;BME280;48842;51.046;13.796;2023-12-22T04:47:25;97932.09;;;8.16;49.54
62800;BME280;48842;51.046;13.796;2023-12-22T04:49:50;97922.69;;;8.11;49.36
62800;BME280;48842;51.046;13.796;2023-12-22T04:52:15;97928.75;;;8.11;49.95
62800;BME280;48842;51.046;13.796;2023-12-22T04:54:41;97925.25;;;8.12;49.84
62800;BME280;48842;51.046;13.796;2023-12-22T04:57:06;97918.31;;;8.11;49.51
62800;BME280;48842;51.046;13.796;2023-12-22T04:59:31;97917.44;;;8.12;49.67
62800;BME280;48842;51.046;13.796;2023-12-22T05:01:56;97917.38;;;8.14;49.65
62800;BME280;48842;51.046;13.796;2023-12-22T05:04:22;97894.81;;;8.13;49.97
62800;BME280;48842;51.046;13.796;2023-12-22T05:06:48;97928.81;;;8.08;49.60
62800;BME280;48842;51.046;13.796;2023-12-22T05:09:13;97935.88;;;8.04;49.68
62800;BME280;48842;51.046;13.796;2023-12-22T05:11:39;97911.72;;;7.98;50.00
62800;BME280;48842;51.046;13.796;2023-12-22T05:14:05;97922.28;;;7.92;49.90
62800;BME280;48842;51.046;13.796;2023-12-22T05:16:30;97916.91;;;7.98;50.38
62800;BME280;48842;51.046;13.796;2023-12-22T05:18:57;97914.41;;;7.95;50.19
62800;BME280;48842;51.046;13.796;2023-12-22T05:21:23;97934.78;;;7.77;50.79
62800;BME280;48842;51.046;13.796;2023-12-22T05:23:48;97923.34;;;7.84;51.01
62800;BME280;48842;51.046;13.796;2023-12-22T05:26:17;97921.00;;;7.72;51.26
62800;BME280;48842;51.046;13.796;2023-12-22T05:28:43;97920.13;;;7.73;50.87
62800;BME280;48842;51.046;13.796;2023-12-22T05:31:08;97928.03;;;7.70;51.26
62800;BME280;48842;51.046;13.796;2023-12-22T05:33:33;97936.88;;;7.63;51.26
62800;BME280;48842;51.046;13.796;2023-12-22T05:35:59;97943.88;;;7.61;51.36
62800;BME280;48842;51.046;13.796;2023-12-22T05:38:24;97942.94;;;7.63;51.74
62800;BME280;48842;51.046;13.796;2023-12-22T05:40:49;97941.28;;;7.59;51.85
62800;BME280;48842;51.046;13.796;2023-12-22T05:43:14;97933.66;;;7.51;52.19
62800;BME280;48842;51.046;13.796;2023-12-22T05:45:40;97934.59;;;7.47;52.41
62800;BME280;48842;51.046;13.796;2023-12-22T05:48:05;97942.41;;;7.47;52.41
62800;BME280;48842;51.046;13.796;2023-12-22T05:50:32;97928.47;;;7.50;52.55
62800;BME280;48842;51.046;13.796;2023-12-22T05:52:57;97916.56;;;7.40;52.29
62800;BME280;48842;51.046;13.796;2023-12-22T05:55:22;97925.38;;;7.34;52.50
62800;BME280;48842;51.046;13.796;2023-12-22T05:57:47;97935.63;;;7.40;52.19
62800;BME280;48842;51.046;13.796;2023-12-22T06:00:13;97948.66;;;7.40;52.35
62800;BME280;48842;51.046;13.796;2023-12-22T06:02:41;97951.25;;;7.40;52.48
62800;BME280;48842;51.046;13.796;2023-12-22T06:05:06;97956.44;;;7.43;52.29
62800;BME280;48842;51.046;13.796;2023-12-22T06:07:32;97957.16;;;7.48;52.11
62800;BME280;48842;51.046;13.796;2023-12-22T06:09:59;97965.81;;;7.50;52.27
62800;BME280;48842;51.046;13.796;2023-12-22T06:12:24;97962.31;;;7.51;52.05
62800;BME280;48842;51.046;13.796;2023-12-22T06:14:51;97966.84;;;7.43;52.50
62800;BME280;48842;51.046;13.796;2023-12-22T06:17:16;97957.16;;;7.48;52.64
62800;BME280;48842;51.046;13.796;2023-12-22T06:19:42;97968.59;;;7.41;52.61
62800;BME280;48842;51.046;13.796;2023-12-22T06:22:07;97939.16;;;7.39;52.81
62800;BME280;48842;51.046;13.796;2023-12-22T06:24:34;97981.59;;;7.43;52.99
62800;BME280;48842;51.046;13.796;2023-12-22T06:26:59;97967.03;;;7.34;53.13
62800;BME280;48842;51.046;13.796;2023-12-22T06:29:25;97970.41;;;7.39;52.89
62800;BME280;48842;51.046;13.796;2023-12-22T06:31:50;97975.59;;;7.39;52.38
62800;BME280;48842;51.046;13.796;2023-12-22T06:34:16;97981.63;;;7.41;52.14
62800;BME280;48842;51.046;13.796;2023-12-22T06:36:41;97946.13;;;7.37;52.47
62800;BME280;48842;51.046;13.796;2023-12-22T06:39:07;98000.84;;;7.36;52.19
62800;BME280;48842;51.046;13.796;2023-12-22T06:41:33;97952.22;;;7.38;52.51
62800;BME280;48842;51.046;13.796;2023-12-22T06:43:58;97967.84;;;7.38;52.50
62800;BME280;48842;51.046;13.796;2023-12-22T06:46:27;97945.28;;;7.37;52.06
62800;BME280;48842;51.046;13.796;2023-12-22T06:48:53;97965.25;;;7.36;52.25
62800;BME280;48842;51.046;13.796;2023-12-22T06:51:26;97955.75;;;7.33;51.79
62800;BME280;48842;51.046;13.796;2023-12-22T06:53:52;97961.75;;;7.37;51.60
62800;BME280;48842;51.046;13.796;2023-12-22T06:56:19;97967.03;;;7.34;51.34
62800;BME280;48842;51.046;13.796;2023-12-22T06:58:45;97966.09;;;7.37;51.42
62800;BME280;48842;51.046;13.796;2023-12-22T07:01:12;97968.72;;;7.37;51.52
62800;BME280;48842;51.046;13.796;2023-12-22T07:03:42;97960.91;;;7.37;51.41
62800;BME280;48842;51.046;13.796;2023-12-22T07:06:07;97951.47;;;7.31;51.50
62800;BME280;48842;51.046;13.796;2023-12-22T07:08:32;97963.66;;;7.30;51.46
62800;BME280;48842;51.046;13.796;2023-12-22T07:10:58;97965.44;;;7.27;51.69
62800;BME280;48842;51.046;13.796;2023-12-22T07:13:23;97946.38;;;7.26;51.46
62800;BME280;48842;51.046;13.796;2023-12-22T07:15:48;97952.44;;;7.27;51.71
62800;BME280;48842;51.046;13.796;2023-12-22T07:18:14;97966.34;;;7.26;51.47
62800;BME280;48842;51.046;13.796;2023-12-22T07:20:39;97956.75;;;7.28;51.63
62800;BME280;48842;51.046;13.796;2023-12-22T07:23:04;97977.59;;;7.28;51.92
62800;BME280;48842;51.046;13.796;2023-12-22T07:25:35;97959.34;;;7.28;51.83
62800;BME280;48842;51.046;13.796;2023-12-22T07:28:00;97968.25;;;7.18;51.52
62800;BME280;48842;51.046;13.796;2023-12-22T07:30:25;98006.31;;;7.23;51.27
62800;BME280;48842;51.046;13.796;2023-12-22T07:32:50;97994.28;;;7.18;51.68
62800;BME280;48842;51.046;13.796;2023-12-22T07:35:17;98002.09;;;7.18;51.68
62800;BME280;48842;51.046;13.796;2023-12-22T07:37:42;98020.25;;;7.21;51.57
62800;BME280;48842;51.046;13.796;2023-12-22T07:40:08;97992.53;;;7.18;51.82
62800;BME280;48842;51.046;13.796;2023-12-22T07:42:34;98015.06;;;7.19;52.55
62800;BME280;48842;51.046;13.796;2023-12-22T07:44:59;98016.50;;;7.34;52.37
62800;BME280;48842;51.046;13.796;2023-12-22T07:47:24;98030.22;;;7.42;52.42
62800;BME280;48842;51.046;13.796;2023-12-22T07:49:49;98044.91;;;7.46;51.98
62800;BME280;48842;51.046;13.796;2023-12-22T07:52:15;98056.47;;;7.31;53.15
62800;BME280;48842;51.046;13.796;2023-12-22T07:54:40;98053.97;;;7.27;53.17
62800;BME280;48842;51.046;13.796;2023-12-22T07:57:05;98065.47;;;7.15;53.87
62800;BME280;48842;51.046;13.796;2023-12-22T07:59:31;98086.41;;;7.09;54.38
62800;BME280;48842;51.046;13.796;2023-12-22T08:01:56;98087.44;;;7.00;55.00
62800;BME280;48842;51.046;13.796;2023-12-22T08:04:22;98084.94;;;6.95;55.42
62800;BME280;48842;51.046;13.796;2023-12-22T08:06:47;98130.19;;;6.87;56.08
62800;BME280;48842;51.046;13.796;2023-12-22T08:09:12;98143.38;;;6.76;57.42
62800;BME280;48842;51.046;13.796;2023-12-22T08:11:37;98187.81;;;6.62;58.31
62800;BME280;48842;51.046;13.796;2023-12-22T08:14:03;98143.16;;;6.35;59.45
62800;BME280;48842;51.046;13.796;2023-12-22T08:16:28;98178.22;;;6.05;60.17
62800;BME280;48842;51.046;13.796;2023-12-22T08:18:53;98155.97;;;5.82;59.77
62800;BME280;48842;51.046;13.796;2023-12-22T08:21:19;98146.66;;;5.66;60.61
62800;BME280;48842;51.046;13.796;2023-12-22T08:23:44;98139.00;;;5.55;61.18
62800;BME280;48842;51.046;13.796;2023-12-22T08:26:09;98129.56;;;5.48;61.04
62800;BME280;48842;51.046;13.796;2023-12-22T08:28:35;98121.03;;;5.36;61.56
62800;BME280;48842;51.046;13.796;2023-12-22T08:31:00;98122.78;;;5.33;61.84
62800;BME280;48842;51.046;13.796;2023-12-22T08:33:25;98121.94;;;5.32;61.93
62800;BME280;48842;51.046;13.796;2023-12-22T08:35:52;98126.25;;;5.35;61.77
62800;BME280;48842;51.046;13.796;2023-12-22T08:38:19;98127.09;;;5.35;61.91
62800;BME280;48842;51.046;13.796;2023-12-22T08:40:46;98124.47;;;5.37;62.13
62800;BME280;48842;51.046;13.796;2023-12-22T08:43:12;98137.41;;;5.40;62.25
62800;BME280;48842;51.046;13.796;2023-12-22T08:45:37;98157.34;;;5.39;62.08
62800;BME280;48842;51.046;13.796;2023-12-22T08:48:02;98172.91;;;5.39;62.24
62800;BME280;48842;51.046;13.796;2023-12-22T08:50:28;98172.88;;;5.42;61.98
62800;BME280;48842;51.046;13.796;2023-12-22T08:52:53;98174.59;;;5.44;61.79
62800;BME280;48842;51.046;13.796;2023-12-22T08:55:19;98172.91;;;5.39;62.03
62800;BME280;48842;51.046;13.796;2023-12-22T08:57:44;98166.09;;;5.29;63.08
62800;BME280;48842;51.046;13.796;2023-12-22T09:00:09;98167.81;;;5.30;62.88
62800;BME280;48842;51.046;13.796;2023-12-22T09:02:35;98176.41;;;5.35;62.99
62800;BME280;48842;51.046;13.796;2023-12-22T09:05:00;98197.09;;;5.41;62.68
62800;BME280;48842;51.046;13.796;2023-12-22T09:07:26;98198.75;;;5.49;62.63
62800;BME280;48842;51.046;13.796;2023-12-22T09:09:51;98205.56;;;5.59;62.68
62800;BME280;48842;51.046;13.796;2023-12-22T09:12:16;98224.56;;;5.64;62.89
62800;BME280;48842;51.046;13.796;2023-12-22T09:14:41;98222.81;;;5.65;63.14
62800;BME280;48842;51.046;13.796;2023-12-22T09:17:07;98197.69;;;5.68;62.98
62800;BME280;48842;51.046;13.796;2023-12-22T09:19:32;98193.38;;;5.67;63.48
62800;BME280;48842;51.046;13.796;2023-12-22T09:21:58;98208.88;;;5.73;63.18
62800;BME280;48842;51.046;13.796;2023-12-22T09:24:24;98199.38;;;5.72;63.10
62800;BME280;48842;51.046;13.796;2023-12-22T09:26:49;98214.00;;;5.81;62.23
62800;BME280;48842;51.046;13.796;2023-12-22T09:29:16;98215.63;;;5.90;62.06
62800;BME280;48842;51.046;13.796;2023-12-22T09:31:42;98217.28;;;5.94;61.88
62800;BME280;48842;51.046;13.796;2023-12-22T09:34:07;98200.84;;;5.93;61.61
62800;BME280;48842;51.046;13.796;2023-12-22T09:36:32;98207.81;;;5.91;61.43
62800;BME280;48842;51.046;13.796;2023-12-22T09:38:57;98213.91;;;5.89;61.28
62800;BME280;48842;51.046;13.796;2023-12-22T09:41:23;98215.63;;;5.90;61.62
62800;BME280;48842;51.046;13.796;2023-12-22T09:43:49;98212.09;;;5.94;61.96
62800;BME280;48842;51.046;13.796;2023-12-22T09:46:18;98207.75;;;5.99;62.20
62800;BME280;48842;51.046;13.796;2023-12-22T09:48:45;98207.72;;;6.02;62.07
62800;BME280;48842;51.046;13.796;2023-12-22T09:51:11;98205.06;;;6.05;62.17
62800;BME280;48842;51.046;13.796;2023-12-22T09:53:38;98218.03;;;6.07;62.09
62800;BME280;48842;51.046;13.796;2023-12-22T09:56:05;98211.94;;;6.11;62.01
62800;BME280;48842;51.046;13.796;2023-12-22T09:58:32;98211.81;;;6.19;61.94
62800;BME280;48842;51.046;13.796;2023-12-22T10:01:02;98211.75;;;6.26;61.71
62800;BME280;48842;51.046;13.796;2023-12-22T10:03:31;98199.44;;;6.36;61.68
62800;BME280;48842;51.046;13.796;2023-12-22T10:05:58;98209.78;;;6.44;61.42
62800;BME280;48842;51.046;13.796;2023-12-22T10:08:24;98198.41;;;6.48;61.26
62800;BME280;48842;51.046;13.796;2023-12-22T10:10:50;98195.72;;;6.56;60.96
62800;BME280;48842;51.046;13.796;2023-12-22T10:13:17;98193.91;;;6.61;60.04
62800;BME280;48842;51.046;13.796;2023-12-22T10:15:43;98188.53;;;6.72;59.37
62800;BME280;48842;51.046;13.796;2023-12-22T10:18:10;98202.28;;;6.78;58.20
62800;BME280;48842;51.046;13.796;2023-12-22T10:20:35;98197.09;;;6.78;56.48
62800;BME280;48842;51.046;13.796;2023-12-22T10:23:01;98221.22;;;6.88;55.89
62800;BME280;48842;51.046;13.796;2023-12-22T10:25:29;98233.34;;;6.91;55.52
62800;BME280;48842;51.046;13.796;2023-12-22T10:27:55;98243.53;;;7.05;53.67
62800;BME280;48842;51.046;13.796;2023-12-22T10:30:21;98246.88;;;7.13;53.63
62800;BME280;48842;51.046;13.796;2023-12-22T10:32:47;98252.03;;;7.14;52.57
62800;BME280;48842;51.046;13.796;2023-12-22T10:35:12;98250.16;;;7.23;52.74
62800;BME280;48842;51.046;13.796;2023-12-22T10:37:37;98254.41;;;7.28;52.98
62800;BME280;48842;51.046;13.796;2023-12-22T10:40:07;98260.50;;;7.29;53.13
62800;BME280;48842;51.046;13.796;2023-12-22T10:42:34;98241.34;;;7.30;51.94
62800;BME280;48842;51.046;13.796;2023-12-22T10:45:00;98292.59;;;7.29;52.42
62800;BME280;48842;51.046;13.796;2023-12-22T10:47:25;98234.47;;;7.29;52.45
62800;BME280;48842;51.046;13.796;2023-12-22T10:49:51;98252.63;;;7.32;52.76
62800;BME280;48842;51.046;13.796;2023-12-22T10:52:17;98256.94;;;7.34;52.73
62800;BME280;48842;51.046;13.796;2023-12-22T10:54:43;98233.53;;;7.33;52.47
62800;BME280;48842;51.046;13.796;2023-12-22T10:57:10;98228.34;;;7.30;52.18
62800;BME280;48842;51.046;13.796;2023-12-22T10:59:40;98224.00;;;7.30;52.24
62800;BME280;48842;51.046;13.796;2023-12-22T11:02:13;98231.03;;;7.25;52.14
62800;BME280;48842;51.046;13.796;2023-12-22T11:04:41;98244.94;;;7.26;52.67
62800;BME280;48842;51.046;13.796;2023-12-22T11:07:09;98251.06;;;7.22;53.08
62800;BME280;48842;51.046;13.796;2023-12-22T11:09:35;98283.22;;;7.19;53.77
62800;BME280;48842;51.046;13.796;2023-12-22T11:12:01;98286.09;;;7.01;56.35
62800;BME280;48842;51.046;13.796;2023-12-22T11:14:29;98254.41;;;6.74;57.99
62800;BME280;48842;51.046;13.796;2023-12-22T11:16:56;98245.97;;;6.58;58.31
62800;BME280;48842;51.046;13.796;2023-12-22T11:19:23;98236.56;;;6.47;59.12
62800;BME280;48842;51.046;13.796;2023-12-22T11:21:49;98242.69;;;6.43;59.18
62800;BME280;48842;51.046;13.796;2023-12-22T11:24:15;98246.19;;;6.39;59.56
62800;BME280;48842;51.046;13.796;2023-12-22T11:26:42;98219.34;;;6.39;59.64
62800;BME280;48842;51.046;13.796;2023-12-22T11:29:10;98224.66;;;6.33;60.34
62800;BME280;48842;51.046;13.796;2023-12-22T11:31:37;98195.16;;;6.35;59.79
62800;BME280;48842;51.046;13.796;2023-12-22T11:34:04;98202.91;;;6.38;60.16
62800;BME280;48842;51.046;13.796;2023-12-22T11:36:31;98181.19;;;6.39;60.23
62800;BME280;48842;51.046;13.796;2023-12-22T11:38:56;98178.50;;;6.49;59.69
62800;BME280;48842;51.046;13.796;2023-12-22T11:41:25;98201.72;;;6.59;59.80
62800;BME280;48842;51.046;13.796;2023-12-22T11:43:51;98194.69;;;6.66;59.50
62800;BME280;48842;51.046;13.796;2023-12-22T11:46:17;98190.28;;;6.71;59.76
62800;BME280;48842;51.046;13.796;2023-12-22T11:48:47;98189.34;;;6.75;58.80
62800;BME280;48842;51.046;13.796;2023-12-22T11:51:13;98190.13;;;6.79;58.57
62800;BME280;48842;51.046;13.796;2023-12-22T11:53:39;98178.84;;;6.80;58.41
62800;BME280;48842;51.046;13.796;2023-12-22T11:56:09;98197.88;;;6.85;58.38
62800;BME280;48842;51.046;13.796;2023-12-22T11:58:45;98160.50;;;6.91;57.76
62800;BME280;48842;51.046;13.796;2023-12-22T12:01:19;98159.50;;;6.96;57.82
62800;BME280;48842;51.046;13.796;2023-12-22T12:03:48;98172.47;;;7.01;57.54
62800;BME280;48842;51.046;13.796;2023-12-22T12:08:52;98155.75;;;7.13;57.27
62800;BME280;48842;51.046;13.796;2023-12-22T12:11:19;98172.22;;;7.13;57.11
62800;BME280;48842;51.046;13.796;2023-12-22T12:13:45;98176.41;;;7.22;57.25
62800;BME280;48842;51.046;13.796;2023-12-22T12:16:12;98158.91;;;7.30;56.67
62800;BME280;48842;51.046;13.796;2023-12-22T12:18:38;98161.34;;;7.40;56.86
62800;BME280;48842;51.046;13.796;2023-12-22T12:21:06;98158.56;;;7.49;56.87
62800;BME280;48842;51.046;13.796;2023-12-22T12:23:32;98146.22;;;7.59;56.69
62800;BME280;48842;51.046;13.796;2023-12-22T12:25:57;98156.53;;;7.63;56.37
62800;BME280;48842;51.046;13.796;2023-12-22T12:28:30;98134.72;;;7.69;56.22
62800;BME280;48842;51.046;13.796;2023-12-22T12:30:57;98131.19;;;7.72;55.47
62800;BME280;48842;51.046;13.796;2023-12-22T12:33:24;98121.56;;;7.75;55.90
62800;BME280;48842;51.046;13.796;2023-12-22T12:35:52;98111.09;;;7.78;55.88
62800;BME280;48842;51.046;13.796;2023-12-22T12:38:21;98120.56;;;7.81;55.31
62800;BME280;48842;51.046;13.796;2023-12-22T12:40:50;98130.09;;;7.83;54.96
62800;BME280;48842;51.046;13.796;2023-12-22T12:43:17;98130.84;;;7.89;54.76
62800;BME280;48842;51.046;13.796;2023-12-22T12:45:42;98142.28;;;7.83;54.35
62800;BME280;48842;51.046;13.796;2023-12-22T12:48:08;98160.69;;;7.74;53.59
62800;BME280;48842;51.046;13.796;2023-12-22T12:50:33;98143.41;;;7.68;54.04
62800;BME280;48842;51.046;13.796;2023-12-22T12:52:59;98165.41;;;7.53;54.78
62800;BME280;48842;51.046;13.796;2023-12-22T12:55:25;98151.81;;;7.39;55.22
62800;BME280;48842;51.046;13.796;2023-12-22T13:00:23;98152.25;;;7.15;56.33